Time;durP1;ratioP1;P1;durP2;ratioP2;P2;SDS_P1;SDS_P2;PMS_P1;PMS_P2;Temp;Humidity;BMP_temperature;BMP_pressure;BME280_temperature;BME280_humidity;BME280_pressure;Samples;Min_cycle;Max_cycle;Signal;HPM_P1;HPM_P2
2022/01/14 00:00:30;;;;;;;17.70;9.87;;;;;;;1.96;59.19;103267.44;5047887;28;20041;-79
2022/01/14 00:02:57;;;;;;;12.90;8.60;;;;;;;1.84;59.33;103248.34;5002663;28;1175468;-79
2022/01/14 00:05:24;;;;;;;17.27;9.43;;;;;;;1.90;59.60;103252.66;5051503;28;20054;-77
2022/01/14 00:07:50;;;;;;;15.00;9.10;;;;;;;2.08;59.24;103280.41;5052443;28;20139;-78
2022/01/14 00:10:26;;;;;;;13.80;8.97;;;;;;;1.40;59.52;103165.00;5069002;28;20048;-78
2022/01/14 00:12:57;;;;;;;15.80;9.20;;;;;;;1.82;58.53;103231.81;5050869;28;20109;-79
2022/01/14 00:15:24;;;;;;;15.20;9.77;;;;;;;2.01;59.61;103257.78;5049875;28;20082;-80
2022/01/14 00:17:52;;;;;;;12.53;8.70;;;;;;;2.13;59.03;103268.13;5050131;28;20098;-79
2022/01/14 00:20:20;;;;;;;16.10;8.73;;;;;;;2.05;59.36;103276.09;5049884;28;20056;-78
2022/01/14 00:22:47;;;;;;;12.97;9.37;;;;;;;2.01;59.48;103276.13;5033747;28;20053;-77
2022/01/14 00:33:31;;;;;;;14.70;7.37;;;;;;;1.97;57.52;103256.97;5067795;28;20052;-79
2022/01/14 00:35:58;;;;;;;12.07;7.83;;;;;;;1.91;56.88;103242.16;5049886;28;20114;-79
2022/01/14 00:38:24;;;;;;;15.53;7.67;;;;;;;2.01;56.46;103249.94;5049599;28;20127;-78
2022/01/14 00:40:51;;;;;;;10.50;7.43;;;;;;;1.95;57.36;103234.28;5049327;28;20056;-80
2022/01/14 00:43:18;;;;;;;10.40;7.77;;;;;;;1.72;56.08;103185.59;5049549;28;20516;-78
2022/01/14 00:45:45;;;;;;;10.50;7.87;;;;;;;1.96;58.22;103212.44;5067178;28;20049;-80
2022/01/14 00:48:12;;;;;;;11.60;7.13;;;;;;;1.91;57.98;103209.84;5049459;28;20048;-79
2022/01/14 00:50:44;;;;;;;12.40;8.17;;;;;;;1.62;58.36;103160.41;5049442;28;20051;-79
2022/01/14 00:53:11;;;;;;;14.00;8.10;;;;;;;1.92;57.85;103212.47;5067248;28;20076;-78
2022/01/14 00:55:54;;;;;;;16.87;8.40;;;;;;;2.16;57.76;103247.16;5049035;28;20389;-79
2022/01/14 01:01:06;;;;;;;17.80;7.93;;;;;;;2.13;58.75;103234.94;5066663;28;20453;-79
2022/01/14 01:03:34;;;;;;;19.63;8.07;;;;;;;2.12;56.87;103229.72;5047308;28;20145;-80
2022/01/14 01:06:02;;;;;;;19.13;8.27;;;;;;;2.17;57.89;103246.25;5049091;28;20144;-80
2022/01/14 01:08:30;;;;;;;15.63;8.27;;;;;;;2.01;58.29;103226.34;5048941;28;20052;-79
2022/01/14 01:10:56;;;;;;;13.33;8.17;;;;;;;2.13;57.64;103240.16;5049019;28;20052;-79
2022/01/14 01:13:33;;;;;;;20.73;8.70;;;;;;;2.12;58.18;103242.81;5048687;28;20143;-80
2022/01/14 01:16:00;;;;;;;27.07;8.77;;;;;;;2.17;57.41;103251.50;5049302;28;20098;-79
2022/01/14 01:18:28;;;;;;;24.83;9.57;;;;;;;2.00;57.31;103206.28;5048882;28;20656;-79
2022/01/14 01:20:54;;;;;;;20.17;9.23;;;;;;;1.78;58.08;103146.28;5066773;28;20052;-77
2022/01/14 01:23:21;;;;;;;21.20;7.87;;;;;;;2.06;59.58;103204.47;5048732;28;20076;-79
2022/01/14 01:25:50;;;;;;;17.97;9.07;;;;;;;2.06;58.58;103203.56;5048872;28;20056;-76
2022/01/14 01:28:19;;;;;;;11.10;7.50;;;;;;;1.90;57.02;103193.28;5049011;28;20431;-77
2022/01/14 01:33:21;;;;;;;16.13;8.17;;;;;;;1.95;59.35;103211.56;5067337;28;20052;-80
2022/01/14 01:35:48;;;;;;;12.73;7.50;;;;;;;2.03;57.88;103214.97;5066180;28;20083;-78
2022/01/14 01:38:17;;;;;;;14.20;6.97;;;;;;;2.05;58.08;103222.81;5048742;28;20419;-80
2022/01/14 01:40:49;;;;;;;15.03;7.77;;;;;;;2.09;58.44;103224.53;5048367;28;20258;-79
2022/01/14 01:43:17;;;;;;;10.23;7.00;;;;;;;2.04;58.72;103219.34;5048898;28;20090;-79
2022/01/14 01:45:47;;;;;;;9.70;6.37;;;;;;;2.07;56.95;103221.03;5066744;28;20052;-79
2022/01/14 01:48:14;;;;;;;8.73;6.77;;;;;;;2.08;57.47;103207.91;5049448;28;20067;-78
2022/01/14 01:50:41;;;;;;;10.67;7.20;;;;;;;1.98;58.47;103208.03;5049881;28;20041;-79
2022/01/14 01:53:07;;;;;;;10.20;6.87;;;;;;;1.67;57.61;103158.59;5049675;28;20508;-78
2022/01/14 01:55:34;;;;;;;10.77;6.70;;;;;;;1.70;57.42;103148.13;5048867;28;20041;-79
2022/01/14 01:58:04;;;;;;;8.73;6.33;;;;;;;2.04;56.38;103210.56;5048819;28;20049;-79
2022/01/14 02:00:30;;;;;;;10.97;6.50;;;;;;;2.11;55.78;103200.03;5066026;28;20041;-78
2022/01/14 02:02:59;;;;;;;8.30;6.70;;;;;;;2.06;55.00;103193.97;5048056;28;20311;-79
2022/01/14 02:05:26;;;;;;;7.93;6.30;;;;;;;2.19;55.99;103204.31;5048669;28;20053;-81
2022/01/14 02:07:53;;;;;;;8.47;6.43;;;;;;;2.17;57.28;103195.59;5048392;28;20045;-78
2022/01/14 02:10:22;;;;;;;10.80;6.17;;;;;;;2.16;55.79;103186.88;5065886;28;20044;-79
2022/01/14 02:12:51;;;;;;;8.40;6.30;;;;;;;2.00;56.03;103159.97;5048054;28;20140;-79
2022/01/14 02:23:25;;;;;;;7.13;6.13;;;;;;;2.10;56.64;103179.06;5066114;28;20569;-79
2022/01/14 02:25:52;;;;;;;6.77;6.00;;;;;;;1.93;56.94;103153.94;5048133;28;20346;-77
2022/01/14 02:28:20;;;;;;;8.20;5.80;;;;;;;2.01;58.21;103163.47;5048455;28;20048;-80
2022/01/14 02:30:49;;;;;;;7.67;6.10;;;;;;;1.89;56.03;103147.03;5047812;28;20056;-79
2022/01/14 02:33:17;;;;;;;9.50;6.57;;;;;;;1.95;55.27;103134.72;5048314;28;20060;-79
2022/01/14 02:35:46;;;;;;;7.43;6.07;;;;;;;1.87;55.15;103122.59;5047494;28;20144;-78
2022/01/14 02:38:14;;;;;;;8.23;6.33;;;;;;;2.02;55.24;103139.88;5047683;28;20052;-79
2022/01/14 02:40:41;;;;;;;9.60;6.47;;;;;;;2.11;56.76;103151.97;5047938;28;20072;-81
2022/01/14 02:43:13;;;;;;;9.57;5.57;;;;;;;2.00;54.68;103130.31;5065235;28;20499;-79
2022/01/14 02:45:46;;;;;;;8.32;5.88;;;;;;;2.17;54.62;103148.44;5065446;28;20105;-79
2022/01/14 02:48:13;;;;;;;6.00;4.87;;;;;;;2.08;53.62;103118.81;5050170;28;20158;-80
2022/01/14 02:50:55;;;;;;;6.13;5.53;;;;;;;2.22;53.15;103139.59;5051371;28;20147;-79
2022/01/14 02:53:27;;;;;;;9.38;5.93;;;;;;;2.13;53.10;103121.38;5051343;28;20396;-79
2022/01/14 02:55:58;;;;;;;;;;;;;;;2.30;52.09;103139.50;5070407;28;20459;-78
2022/01/14 02:58:29;;;;;;;6.07;4.40;;;;;;;2.41;50.53;103134.97;5052876;28;20118;-78
2022/01/14 03:01:00;;;;;;;6.80;4.50;;;;;;;2.47;51.86;103136.63;5051614;28;20102;-78
2022/01/14 03:03:29;;;;;;;7.30;4.93;;;;;;;2.50;51.74;103141.84;5051632;28;20139;-78
2022/01/14 03:05:55;;;;;;;6.60;4.90;;;;;;;2.45;53.06;103122.69;5052916;28;20049;-79
2022/01/14 03:08:22;;;;;;;6.83;5.27;;;;;;;2.01;53.26;103051.66;5069443;28;20132;-77
2022/01/14 03:10:59;;;;;;;5.37;4.83;;;;;;;2.47;52.71;103131.41;5047663;28;20419;-78
2022/01/14 03:13:26;;;;;;;7.00;5.30;;;;;;;2.22;52.68;103102.91;5031147;28;20235;-79
2022/01/14 03:15:53;;;;;;;6.47;5.10;;;;;;;2.44;53.95;103132.31;5047807;28;20469;-79
2022/01/14 03:18:30;;;;;;;7.03;5.73;;;;;;;2.28;54.59;103096.72;5031502;28;20053;-80
2022/01/14 03:21:09;;;;;;;7.40;5.77;;;;;;;2.32;52.34;103103.66;5049032;28;20045;-80
2022/01/14 03:23:47;;;;;;;5.70;5.03;;;;;;;2.40;54.07;103129.75;5031206;28;20049;-80
2022/01/14 03:26:16;;;;;;;8.97;5.77;;;;;;;2.08;54.30;103076.03;5030852;28;20128;-79
2022/01/14 03:28:43;;;;;;;7.10;5.37;;;;;;;2.39;54.45;103135.91;5048699;28;20041;-80
2022/01/14 03:31:13;;;;;;;7.20;5.73;;;;;;;2.35;54.99;103128.09;5031022;28;20051;-80
2022/01/14 03:33:40;;;;;;;6.63;5.13;;;;;;;2.23;54.78;103127.38;5030605;28;20088;-78
2022/01/14 03:36:07;;;;;;;7.50;5.37;;;;;;;2.05;53.16;103092.66;5047598;28;20064;-78
2022/01/14 03:38:34;;;;;;;7.30;5.80;;;;;;;2.24;54.55;103119.50;5048228;28;20049;-78
2022/01/14 03:41:02;;;;;;;6.10;4.60;;;;;;;2.18;55.30;103123.94;5030559;28;20141;-77
2022/01/14 03:43:29;;;;;;;7.57;5.70;;;;;;;1.88;54.60;103060.59;5048285;28;20099;-79
2022/01/14 03:45:56;;;;;;;6.70;5.27;;;;;;;2.18;55.64;103132.66;5063655;28;20477;-79
2022/01/14 03:48:22;;;;;;;10.07;5.10;;;;;;;2.12;54.23;103119.66;5030783;28;20051;-79
2022/01/14 03:50:49;;;;;;;6.20;5.20;;;;;;;2.12;55.28;103115.28;5031025;28;20115;-78
2022/01/14 03:53:16;;;;;;;6.13;4.43;;;;;;;2.18;52.79;103109.06;5031994;28;20068;-78
2022/01/14 03:55:45;;;;;;;8.03;5.13;;;;;;;2.25;51.63;103104.63;5048615;28;20053;-79
2022/01/14 03:58:31;;;;;;;6.80;4.80;;;;;;;2.29;49.99;103101.94;5059954;28;20690;-79
2022/01/14 04:00:58;;;;;;;5.53;4.40;;;;;;;2.01;48.37;103032.44;5047794;28;20594;-78
2022/01/14 04:03:25;;;;;;;10.23;5.30;;;;;;;2.53;47.82;103094.59;5042652;28;20052;-80
2022/01/14 04:05:52;;;;;;;5.53;4.70;;;;;;;2.62;47.10;103091.84;5046644;28;20098;-79
2022/01/14 04:08:18;;;;;;;6.30;4.93;;;;;;;2.65;47.23;103077.81;5063307;28;20045;-79
2022/01/14 04:10:49;;;;;;;5.87;5.03;;;;;;;2.66;46.51;103071.66;5063308;28;20133;-79
2022/01/14 04:13:22;;;;;;;6.40;4.70;;;;;;;2.74;48.25;103080.25;5046592;28;20570;-78
2022/01/14 04:15:49;;;;;;;6.83;5.20;;;;;;;2.67;46.52;103061.16;5046397;28;20194;-79
2022/01/14 04:18:21;;;;;;;5.90;4.43;;;;;;;2.72;46.38;103056.69;5046257;28;20140;-78
2022/01/14 04:20:52;;;;;;;4.63;3.80;;;;;;;2.64;46.17;103040.22;5063115;28;20103;-79
2022/01/14 04:23:22;;;;;;;5.25;4.75;;;;;;;2.83;45.61;103053.03;5046253;28;20045;-79
2022/01/14 04:25:53;;;;;;;5.03;4.40;;;;;;;2.89;45.82;103050.28;5046010;28;20132;-79
2022/01/14 04:28:22;;;;;;;5.30;4.57;;;;;;;2.65;45.59;103010.47;5045948;28;20047;-78
2022/01/14 04:30:54;;;;;;;6.10;4.50;;;;;;;2.92;46.21;103050.25;5045940;28;20044;-81
2022/01/14 04:33:22;;;;;;;;;;;;;;;2.92;46.16;103050.25;5048181;28;20106;-79
2022/01/14 04:35:48;;;;;;;6.90;4.87;;;;;;;2.96;48.12;103046.66;5046023;28;19966;-79
2022/01/14 04:38:15;;;;;;;4.57;4.07;;;;;;;2.80;47.06;103022.47;5046052;28;20499;-79
2022/01/14 04:40:42;;;;;;;4.97;4.47;;;;;;;2.87;46.44;103036.34;5046225;28;20099;-79
2022/01/14 04:43:09;;;;;;;5.90;5.30;;;;;;;2.88;47.09;103032.81;5046277;28;20084;-78
2022/01/14 04:48:05;;;;;;;7.23;5.03;;;;;;;2.82;49.43;103023.31;5046929;28;20076;-79
2022/01/14 04:50:32;;;;;;;7.17;5.67;;;;;;;2.74;48.62;103012.06;5046218;28;20047;-79
2022/01/14 04:52:59;;;;;;;7.53;5.27;;;;;;;2.72;49.34;102996.38;5047694;28;20139;-80
2022/01/14 04:55:27;;;;;;;8.53;5.43;;;;;;;2.80;50.15;103019.84;5048435;28;20110;-80
2022/01/14 04:57:55;;;;;;;12.23;5.87;;;;;;;2.73;50.09;103012.97;5046733;28;20053;-80
2022/01/14 05:00:23;;;;;;;16.77;6.00;;;;;;;2.69;50.56;103006.03;5045949;28;20144;-80
2022/01/14 05:02:54;;;;;;;10.47;5.57;;;;;;;2.58;50.99;103006.25;5045674;28;20565;-79
2022/01/14 05:05:23;;;;;;;8.90;6.10;;;;;;;2.59;51.78;103023.69;5047284;28;20056;-78
2022/01/14 05:07:51;;;;;;;8.37;5.97;;;;;;;2.54;51.20;103023.75;5062262;28;20147;-77
2022/01/14 05:12:58;;;;;;;6.00;5.10;;;;;;;2.37;52.10;103006.59;5066586;28;20084;-80
2022/01/14 05:15:27;;;;;;;17.97;5.17;;;;;;;2.43;51.37;103004.75;5065329;28;20139;-80
2022/01/14 05:17:54;;;;;;;9.30;5.77;;;;;;;2.38;52.23;103009.19;5048780;28;20040;-78
2022/01/14 05:20:21;;;;;;;7.23;5.80;;;;;;;1.98;51.50;102939.03;5048802;28;20298;-79
2022/01/14 05:22:48;;;;;;;5.87;5.27;;;;;;;2.33;51.40;102998.78;5048402;28;20500;-78
2022/01/14 05:25:15;;;;;;;8.27;7.20;;;;;;;2.34;51.03;102990.00;5048889;28;20488;-79
2022/01/14 05:27:43;;;;;;;13.70;9.83;;;;;;;2.44;51.49;102990.72;5048560;28;20140;-78
2022/01/14 05:30:11;;;;;;;9.43;7.67;;;;;;;2.23;52.04;102959.63;5066265;28;20438;-77
2022/01/14 05:32:49;;;;;;;8.37;5.90;;;;;;;2.41;52.29;102984.69;5048446;28;20487;-78
2022/01/14 05:35:17;;;;;;;6.17;5.27;;;;;;;2.18;52.55;102962.31;5048819;28;20127;-78
2022/01/14 05:37:44;;;;;;;7.03;5.23;;;;;;;2.35;52.46;103001.34;5066604;28;20076;-78
2022/01/14 05:40:12;;;;;;;8.40;5.23;;;;;;;2.41;52.31;102995.16;5049122;28;20071;-80
2022/01/14 05:42:39;;;;;;;10.47;5.33;;;;;;;2.30;53.02;102993.56;5048953;28;20141;-79
2022/01/14 05:45:09;;;;;;;9.40;5.37;;;;;;;2.34;51.77;102997.00;5066857;28;20068;-79
2022/01/14 05:47:37;;;;;;;11.40;5.37;;;;;;;2.37;52.22;102998.72;5048924;28;20348;-79
2022/01/14 05:50:05;;;;;;;8.80;5.30;;;;;;;2.31;53.64;102997.06;5066634;28;20133;-79
2022/01/14 05:52:31;;;;;;;8.80;4.57;;;;;;;2.23;53.15;102981.44;5048737;28;20041;-80
2022/01/14 05:54:58;;;;;;;15.00;6.53;;;;;;;2.33;53.19;102988.28;5065005;28;20518;-79
2022/01/14 05:57:24;;;;;;;9.73;4.40;;;;;;;1.86;52.96;102916.53;5048708;28;20395;-80
2022/01/14 05:59:51;;;;;;;9.37;4.67;;;;;;;1.76;52.73;102901.00;5065151;28;20411;-79
2022/01/14 06:02:18;;;;;;;12.37;5.93;;;;;;;2.33;52.51;102988.28;5058796;28;20461;-80
2022/01/14 06:04:47;;;;;;;47.30;30.53;;;;;;;1.90;53.94;102920.84;5045113;28;20049;-80
2022/01/14 06:07:14;;;;;;;14.97;10.57;;;;;;;1.84;53.40;102893.88;5029599;28;20052;-79
2022/01/14 06:09:41;;;;;;;29.33;8.10;;;;;;;2.25;54.58;102971.81;5062644;28;20053;-78
2022/01/14 06:12:08;;;;;;;11.67;6.20;;;;;;;2.35;54.76;102983.91;5028508;28;20507;-79
2022/01/14 06:14:38;;;;;;;15.73;6.23;;;;;;;2.31;54.15;102984.81;5029289;28;20104;-76
2022/01/14 06:17:05;;;;;;;11.30;6.17;;;;;;;1.49;54.25;102850.75;5029029;28;20055;-79
2022/01/14 06:19:31;;;;;;;19.33;5.77;;;;;;;2.06;54.88;102941.53;5028775;28;20134;-81
2022/01/14 06:21:59;;;;;;;13.83;5.53;;;;;;;2.30;54.45;102979.59;5029119;28;20041;-80
2022/01/14 06:24:26;;;;;;;16.67;6.30;;;;;;;2.17;54.33;102946.63;5033040;28;20049;-80
2022/01/14 06:26:52;;;;;;;28.23;8.13;;;;;;;1.90;53.92;102909.50;5049885;28;20144;-78
2022/01/14 06:29:19;;;;;;;16.70;7.07;;;;;;;2.33;54.95;102977.81;5048127;28;20052;-79
2022/01/14 06:31:46;;;;;;;19.27;6.40;;;;;;;2.35;54.53;102981.28;5046312;28;20515;-79
2022/01/14 06:34:14;;;;;;;20.37;6.13;;;;;;;1.56;53.78;102857.63;5030896;28;20129;-79
2022/01/14 06:36:42;;;;;;;21.53;7.23;;;;;;;2.37;54.54;102990.84;5030644;28;20049;-78
2022/01/14 06:39:12;;;;;;;13.60;6.90;;;;;;;2.43;54.26;102983.75;5030417;28;20084;-79
2022/01/14 06:41:39;;;;;;;14.57;6.60;;;;;;;2.26;53.72;102941.25;5046467;28;20144;-80
2022/01/14 06:44:06;;;;;;;20.30;6.30;;;;;;;2.39;55.36;102955.84;5029889;28;20102;-78
2022/01/14 06:46:34;;;;;;;23.90;7.47;;;;;;;2.50;54.11;102969.66;5047835;28;20041;-79
2022/01/14 06:49:00;;;;;;;31.00;7.27;;;;;;;2.43;55.13;102973.28;5046544;28;20053;-79
2022/01/14 06:51:27;;;;;;;18.33;6.63;;;;;;;2.21;55.53;102917.72;5047599;28;20116;-79
2022/01/14 06:53:54;;;;;;;12.57;6.03;;;;;;;2.35;56.05;102928.84;5030036;28;20080;-79
2022/01/14 06:56:21;;;;;;;18.63;6.23;;;;;;;2.50;55.73;102948.69;5046766;28;20076;-79
2022/01/14 06:58:48;;;;;;;26.63;6.80;;;;;;;2.45;55.48;102949.63;5029718;28;20049;-78
2022/01/14 07:01:14;;;;;;;24.17;6.10;;;;;;;2.45;54.87;102944.38;5046346;28;20103;-79
2022/01/14 07:03:42;;;;;;;12.57;6.00;;;;;;;2.37;54.98;102909.59;5047578;28;20063;-79
2022/01/14 07:06:10;;;;;;;16.10;6.07;;;;;;;2.67;55.15;102948.38;5049754;28;20295;-80
2022/01/14 07:08:37;;;;;;;19.50;6.73;;;;;;;2.61;54.98;102935.38;5049378;28;20052;-79
2022/01/14 07:11:07;;;;;;;33.97;7.97;;;;;;;2.56;54.58;102911.84;5049190;28;20382;-79
2022/01/14 07:13:33;;;;;;;26.37;7.37;;;;;;;2.76;55.34;102939.47;5049364;28;20051;-78
2022/01/14 07:16:03;;;;;;;16.93;6.57;;;;;;;2.75;55.02;102924.63;5049417;28;20067;-78
2022/01/14 07:18:30;;;;;;;16.50;7.10;;;;;;;2.81;54.85;102936.75;5049284;28;20457;-77
2022/01/14 07:20:57;;;;;;;15.73;6.87;;;;;;;2.91;53.47;102936.56;5049269;28;20121;-79
2022/01/14 07:23:26;;;;;;;12.90;6.07;;;;;;;2.63;52.72;102865.41;5049037;28;20052;-80
2022/01/14 07:25:52;;;;;;;13.80;5.67;;;;;;;3.15;51.90;102927.31;5048565;28;20059;-78
2022/01/14 07:28:19;;;;;;;14.13;5.90;;;;;;;3.21;51.18;102921.94;5049506;28;20245;-78
2022/01/14 07:30:46;;;;;;;12.83;5.53;;;;;;;3.41;51.11;102928.53;5049077;28;20055;-79
2022/01/14 07:33:13;;;;;;;16.23;4.90;;;;;;;3.43;49.89;102924.13;5048999;28;20246;-78
2022/01/14 07:35:43;;;;;;;20.37;5.47;;;;;;;3.32;49.29;102876.22;5050256;28;20060;-79
2022/01/14 07:38:10;;;;;;;20.33;5.20;;;;;;;3.66;48.99;102915.69;5067749;28;20048;-80
2022/01/14 07:40:38;;;;;;;18.27;5.57;;;;;;;3.67;48.82;102914.81;5049081;28;20430;-80
2022/01/14 07:43:06;;;;;;;15.40;5.77;;;;;;;3.65;48.34;102903.47;5050315;28;20175;-79
2022/01/14 07:45:33;;;;;;;7.03;5.10;;;;;;;3.60;49.86;102900.94;5050067;28;20292;-79
2022/01/14 07:48:00;;;;;;;11.80;5.70;;;;;;;3.70;49.33;102924.41;5049369;28;20080;-80
2022/01/14 07:50:28;;;;;;;23.20;6.03;;;;;;;3.74;48.39;102918.16;5049541;28;20057;-79
2022/01/14 07:52:55;;;;;;;7.80;4.97;;;;;;;3.76;48.08;102911.97;5048585;28;20052;-80
2022/01/14 07:55:22;;;;;;;12.80;4.70;;;;;;;3.73;48.88;102919.91;5050217;28;20041;-80
2022/01/14 07:57:48;;;;;;;20.87;4.70;;;;;;;3.67;47.63;102898.19;5050359;28;20136;-80
2022/01/14 08:00:16;;;;;;;7.00;4.67;;;;;;;3.81;48.36;102922.34;5049676;28;20051;-80
2022/01/14 08:02:44;;;;;;;10.20;5.03;;;;;;;3.22;48.11;102823.91;5048560;28;20143;-80
2022/01/14 08:05:12;;;;;;;15.87;5.80;;;;;;;3.95;48.21;102922.91;5066807;28;20656;-80
2022/01/14 08:07:45;;;;;;;6.43;3.43;;;;;;;3.89;46.64;102899.41;5048344;28;20545;-78
2022/01/14 08:10:13;;;;;;;10.77;3.97;;;;;;;3.99;45.76;102886.91;5066855;28;20385;-82
2022/01/14 08:12:43;;;;;;;16.90;3.43;;;;;;;4.17;45.46;102899.56;5050290;28;20121;-80
2022/01/14 08:15:10;;;;;;;11.90;3.30;;;;;;;4.27;45.31;102895.84;5049952;28;20565;-80
2022/01/14 08:17:37;;;;;;;8.97;3.33;;;;;;;3.75;43.80;102792.00;5050015;28;20330;-80
2022/01/14 08:20:06;;;;;;;7.40;3.00;;;;;;;4.57;44.33;102913.47;5050281;28;20468;-80
2022/01/14 08:22:33;;;;;;;6.13;2.90;;;;;;;4.70;43.41;102917.47;5068818;28;20057;-80
2022/01/14 08:25:00;;;;;;;19.83;4.50;;;;;;;4.78;43.74;102898.84;5049537;28;20522;-79
2022/01/14 08:27:27;;;;;;;6.13;2.33;;;;;;;4.04;42.12;102770.22;5045536;28;20681;-78
2022/01/14 08:29:54;;;;;;;4.03;2.40;;;;;;;4.81;41.99;102872.47;5028449;28;20080;-79
2022/01/14 08:32:22;;;;;;;2.37;2.07;;;;;;;4.89;42.20;102868.69;5028875;28;20299;-80
2022/01/14 08:34:49;;;;;;;2.80;2.17;;;;;;;5.19;41.67;102889.75;5047497;28;20063;-80
2022/01/14 08:37:16;;;;;;;4.20;2.00;;;;;;;5.47;40.07;102918.78;5048013;28;20047;-79
2022/01/14 08:39:42;;;;;;;5.80;2.40;;;;;;;5.35;40.81;102871.72;5044488;28;20363;-80
2022/01/14 08:42:11;;;;;;;2.40;2.20;;;;;;;5.76;40.92;102914.38;5050156;28;20060;-81
2022/01/14 08:44:38;;;;;;;5.70;2.87;;;;;;;5.80;40.17;102902.78;5049251;28;20055;-79
2022/01/14 08:47:09;;;;;;;3.67;2.43;;;;;;;5.88;40.53;102908.72;5050018;28;20048;-79
2022/01/14 08:49:38;;;;;;;3.17;2.43;;;;;;;5.75;40.44;102887.16;5048934;28;20051;-79
2022/01/14 08:52:06;;;;;;;5.43;2.40;;;;;;;5.56;40.81;102859.66;5048928;28;20059;-80
2022/01/14 08:54:33;;;;;;;3.07;2.40;;;;;;;5.82;40.66;102892.22;5048858;28;20447;-79
2022/01/14 08:57:03;;;;;;;4.33;2.87;;;;;;;5.68;40.37;102863.66;5048893;28;20061;-79
2022/01/14 08:59:31;;;;;;;3.77;3.03;;;;;;;5.98;41.11;102901.38;5049315;28;20048;-80
2022/01/14 09:01:58;;;;;;;5.80;2.63;;;;;;;5.99;40.17;102900.47;5045360;28;20067;-79
2022/01/14 09:04:25;;;;;;;6.37;2.60;;;;;;;5.97;41.42;102886.47;5061926;28;20057;-80
2022/01/14 09:06:52;;;;;;;5.83;2.97;;;;;;;6.03;40.48;102891.56;5028088;28;20132;-80
2022/01/14 09:09:22;;;;;;;3.43;2.23;;;;;;;6.07;40.55;102898.47;5061902;28;20068;-80
2022/01/14 09:11:50;;;;;;;5.65;2.67;;;;;;;6.05;40.71;102889.72;5047059;28;20103;-80
2022/01/14 09:14:18;;;;;;;2.85;2.55;;;;;;;5.88;41.41;102836.66;5061654;28;20139;-79
2022/01/14 09:16:45;;;;;;;10.50;2.30;;;;;;;6.08;41.50;102849.22;5029384;28;20489;-78
2022/01/14 09:19:13;;;;;;;5.63;2.47;;;;;;;6.24;41.12;102857.44;5029682;28;20488;-81
2022/01/14 09:21:43;;;;;;;3.55;2.22;;;;;;;6.38;41.01;102871.00;5029818;28;20049;-80
2022/01/14 09:24:27;;;;;;;4.72;2.95;;;;;;;6.47;40.83;102875.97;5047323;28;20464;-79
2022/01/14 09:26:53;;;;;;;3.58;2.63;;;;;;;6.49;40.16;102842.47;5028932;28;20114;-81
2022/01/14 09:29:20;;;;;;;5.00;2.85;;;;;;;6.21;40.51;102800.38;5028679;28;20140;-80
2022/01/14 09:31:47;;;;;;;3.25;2.95;;;;;;;6.28;40.08;102786.06;5028847;28;20095;-80
2022/01/14 09:34:13;;;;;;;4.70;2.70;;;;;;;6.49;40.40;102813.44;5028619;28;20052;-79
2022/01/14 09:36:40;;;;;;;3.70;3.05;;;;;;;6.83;41.08;102862.38;5028851;28;20052;-79
2022/01/14 09:39:08;;;;;;;3.65;3.03;;;;;;;6.71;40.72;102839.06;5028492;28;20404;-80
2022/01/14 09:41:34;;;;;;;9.20;3.47;;;;;;;6.23;41.37;102758.13;5046117;28;20354;-80
2022/01/14 09:44:02;;;;;;;4.60;3.67;;;;;;;6.47;41.56;102773.06;5028631;28;20388;-81
2022/01/14 09:46:29;;;;;;;5.85;3.38;;;;;;;6.90;41.25;102837.47;5028870;28;20466;-81
2022/01/14 09:48:56;;;;;;;8.18;4.22;;;;;;;6.68;41.22;102786.38;5029083;28;20063;-81
2022/01/14 09:51:24;;;;;;;11.63;3.65;;;;;;;7.14;41.35;102829.53;5046649;28;20102;-80
2022/01/14 09:53:51;;;;;;;5.22;4.07;;;;;;;7.45;40.94;102855.56;5028574;28;20056;-82
2022/01/14 09:56:20;;;;;;;3.40;3.10;;;;;;;7.47;39.95;102822.88;5062731;28;20053;-78
2022/01/14 09:58:49;;;;;;;9.02;3.75;;;;;;;7.80;39.12;102855.94;5065067;28;20106;-82
2022/01/14 10:01:21;;;;;;;7.03;3.28;;;;;;;7.93;38.54;102828.91;5049956;28;20144;-81
2022/01/14 10:03:50;;;;;;;;;;;;;;;8.11;37.19;102826.41;5049110;28;20096;-81
2022/01/14 10:06:49;;;;;;;6.00;3.10;;;;;;;8.17;37.64;102823.50;5048473;28;19924;-83
2022/01/14 10:09:37;;;;;;;4.00;3.00;;;;;;;8.19;36.55;102811.06;5049954;28;20102;-80
2022/01/14 10:12:20;;;;;;;6.25;4.10;;;;;;;8.34;36.04;102839.50;5031308;28;20136;-80
2022/01/14 10:15:00;;;;;;;;;;;;;;;8.40;35.19;102819.00;5032664;28;20143;-78
2022/01/14 10:17:36;;;;;;;6.70;4.18;;;;;;;7.56;35.33;102678.06;5047909;28;20004;-81
2022/01/14 10:20:08;;;;;;;9.85;4.50;;;;;;;8.39;35.99;102811.97;5031803;28;20142;-81
2022/01/14 10:22:40;;;;;;;11.07;4.43;;;;;;;8.32;35.88;102808.72;5049269;28;20084;-80
2022/01/14 10:25:16;;;;;;;10.15;4.47;;;;;;;8.46;35.61;102802.84;5032063;28;20060;-80
2022/01/14 10:27:45;;;;;;;5.35;4.53;;;;;;;8.13;35.81;102738.13;5048534;28;20049;-80
2022/01/14 10:30:31;;;;;;;8.70;4.30;;;;;;;8.38;35.73;102762.63;5049423;28;20081;-81
2022/01/14 10:33:03;;;;;;;14.82;5.43;;;;;;;8.57;36.26;102795.31;5049998;28;20045;-80
2022/01/14 10:35:37;;;;;;;60.17;9.90;;;;;;;8.54;36.48;102784.81;5031770;28;20486;-80
2022/01/14 10:38:06;;;;;;;7.68;4.85;;;;;;;8.63;36.55;102792.34;5032087;28;20427;-79
2022/01/14 10:40:36;;;;;;;7.10;5.15;;;;;;;8.77;36.16;102792.59;5048466;28;20060;-80
2022/01/14 10:43:05;;;;;;;7.03;5.30;;;;;;;8.63;35.84;102771.19;5040141;28;20044;-81
2022/01/14 10:45:52;;;;;;;17.90;7.13;;;;;;;8.84;36.58;102790.50;5021402;28;20107;-80
2022/01/14 10:48:40;;;;;;;9.75;5.25;;;;;;;8.87;36.59;102781.56;5045747;28;20049;-81
2022/01/14 10:51:12;;;;;;;6.65;5.13;;;;;;;8.96;36.62;102776.69;5029600;28;20086;-80
2022/01/14 10:53:43;;;;;;;6.93;4.65;;;;;;;8.78;37.04;102740.47;5030205;28;20132;-81
2022/01/14 10:56:17;;;;;;;10.70;5.72;;;;;;;8.95;37.78;102776.75;5030296;28;20132;-80
2022/01/14 10:58:49;;;;;;;16.70;7.22;;;;;;;8.96;37.54;102774.03;5048554;28;20045;-81
2022/01/14 11:01:22;;;;;;;8.50;6.07;;;;;;;8.83;37.28;102732.31;5029065;28;20084;-81
2022/01/14 11:03:56;;;;;;;11.73;6.55;;;;;;;9.11;37.02;102753.03;5040346;28;20527;-81
2022/01/14 11:06:28;;;;;;;8.43;6.35;;;;;;;9.31;36.42;102747.63;5046137;28;20057;-81
2022/01/14 11:08:55;;;;;;;6.68;6.05;;;;;;;9.55;36.44;102748.19;5045902;28;20040;-80
2022/01/14 11:11:23;;;;;;;7.90;5.97;;;;;;;9.76;35.53;102732.13;5041930;28;20171;-81
2022/01/14 11:13:50;;;;;;;6.32;5.50;;;;;;;9.87;34.17;102700.56;5045967;28;20412;-81
2022/01/14 11:16:17;;;;;;;8.50;5.80;;;;;;;9.98;34.42;102690.25;5044763;28;20224;-82
2022/01/14 11:18:50;;;;;;;7.88;5.55;;;;;;;10.33;33.06;102711.41;5044588;28;20071;-80
2022/01/14 11:24:04;;;;;;;9.45;5.70;;;;;;;10.45;33.64;102716.06;5037023;28;20107;-79
2022/01/14 11:26:37;;;;;;;8.10;5.43;;;;;;;10.33;33.63;102707.91;5025595;28;20099;-81
2022/01/14 11:29:10;;;;;;;8.23;6.43;;;;;;;10.23;33.26;102712.84;5027787;28;20168;-82
2022/01/14 11:31:39;;;;;;;11.65;5.60;;;;;;;9.95;33.15;102655.94;5026584;28;20063;-81
2022/01/14 11:34:08;;;;;;;5.28;4.78;;;;;;;9.84;32.55;102643.22;5027847;28;20052;-80
2022/01/14 11:36:53;;;;;;;6.65;5.18;;;;;;;10.16;32.28;102679.59;5027033;28;20069;-80
2022/01/14 11:39:22;;;;;;;5.60;4.72;;;;;;;10.08;31.91;102679.16;5034331;28;20384;-81
2022/01/14 11:41:57;;;;;;;6.75;4.72;;;;;;;9.41;32.00;102581.00;5045007;28;20487;-81
2022/01/14 11:44:53;;;;;;;5.35;4.43;;;;;;;9.97;32.76;102675.25;5044609;28;20040;-81
2022/01/14 11:47:29;;;;;;;7.85;5.35;;;;;;;9.76;32.99;102645.44;5045154;28;20127;-81
2022/01/14 11:49:58;;;;;;;11.57;6.05;;;;;;;9.74;34.20;102657.09;5039929;28;20123;-81
2022/01/14 11:52:42;;;;;;;10.73;5.70;;;;;;;9.56;34.10;102622.63;5044835;28;20569;-80
2022/01/14 11:55:15;;;;;;;10.88;5.07;;;;;;;9.73;34.27;102658.84;5045629;28;20166;-81
2022/01/14 11:57:45;;;;;;;6.50;5.20;;;;;;;9.69;34.07;102637.91;5045739;28;20435;-81
2022/01/14 12:00:27;;;;;;;9.13;5.90;;;;;;;9.67;33.67;102631.81;5046876;28;20063;-81
2022/01/14 12:02:56;;;;;;;7.97;6.13;;;;;;;9.68;34.06;102614.94;5048730;28;20052;-81
2022/01/14 12:05:27;;;;;;;13.18;6.15;;;;;;;9.43;34.66;102584.44;5048859;28;20350;-80
2022/01/14 12:08:05;;;;;;;9.35;5.25;;;;;;;9.71;34.24;102625.38;5048865;28;20573;-82
2022/01/14 12:10:36;;;;;;;18.17;7.00;;;;;;;9.59;34.88;102611.88;5033097;28;20140;-80